Time;durP1;ratioP1;P1;durP2;ratioP2;P2;SDS_P1;SDS_P2;PMS_P1;PMS_P2;Temp;Humidity;BMP_temperature;BMP_pressure;BME280_temperature;BME280_humidity;BME280_pressure;Samples;Min_cycle;Max_cycle;Signal;HPM_P1;HPM_P2
2022/03/30 00:01:14;;;;;;;;;63.00;51.60;25.20;99.90;;;;;;5038776;28;8753;-66
2022/03/30 00:03:40;;;;;;;;;65.60;52.20;25.20;99.90;;;;;;5048460;28;8748;-66
2022/03/30 00:06:07;;;;;;;;;68.00;52.00;25.00;99.90;;;;;;5018137;28;8733;-66
2022/03/30 00:08:34;;;;;;;;;64.00;52.00;25.20;99.90;;;;;;5018103;28;8772;-66
2022/03/30 00:11:00;;;;;;;;;65.25;49.50;25.30;99.90;;;;;;5018283;28;9900;-66
2022/03/30 00:13:27;;;;;;;;;68.60;53.00;25.20;99.90;;;;;;5016910;28;8763;-66
2022/03/30 00:15:54;;;;;;;;;69.40;54.00;25.40;99.90;;;;;;5018977;28;8765;-66
2022/03/30 00:18:21;;;;;;;;;68.20;54.20;25.40;99.90;;;;;;5024107;28;9131;-65
2022/03/30 00:20:47;;;;;;;;;74.80;63.60;25.20;99.90;;;;;;5038087;28;9123;-66
2022/03/30 00:23:14;;;;;;;;;69.80;57.40;25.10;99.90;;;;;;5036891;28;8745;-66
2022/03/30 00:25:40;;;;;;;;;69.80;54.40;25.10;99.90;;;;;;5037496;28;8744;-66
2022/03/30 00:28:08;;;;;;;;;68.60;55.60;25.20;99.90;;;;;;5038459;28;8730;-66
2022/03/30 00:30:34;;;;;;;;;66.00;53.00;25.40;99.90;;;;;;5037815;28;8758;-66
2022/03/30 00:33:01;;;;;;;;;57.80;46.00;25.20;99.90;;;;;;5031856;28;8723;-66
2022/03/30 00:35:28;;;;;;;;;77.60;61.80;25.40;99.90;;;;;;5017985;28;9408;-65
2022/03/30 00:37:54;;;;;;;;;69.40;55.20;25.30;99.90;;;;;;5018077;28;8797;-65
2022/03/30 00:40:21;;;;;;;;;67.80;54.20;25.30;99.90;;;;;;5018390;28;8798;-65
2022/03/30 00:42:48;;;;;;;;;72.00;55.00;25.60;99.90;;;;;;5017617;28;8768;-66
2022/03/30 00:45:21;;;;;;;;;64.80;52.20;25.80;99.90;;;;;;5017495;28;9791;-65
2022/03/30 00:47:48;;;;;;;;;67.00;53.25;25.90;99.90;;;;;;5020929;28;8865;-66
2022/03/30 00:50:18;;;;;;;;;66.25;52.00;26.00;99.90;;;;;;5036884;28;8785;-66
2022/03/30 00:52:54;;;;;;;;;66.00;53.40;26.00;99.90;;;;;;5032665;28;8823;-66
2022/03/30 00:55:21;;;;;;;;;65.60;51.60;26.10;99.90;;;;;;5061365;28;8758;-65
2022/03/30 00:57:48;;;;;;;;;58.75;48.25;26.10;99.90;;;;;;5037214;28;10068;-65
2022/03/30 01:00:15;;;;;;;;;62.40;50.40;26.10;99.90;;;;;;5037488;28;8801;-66
2022/03/30 01:02:43;;;;;;;;;65.60;52.00;26.20;99.90;;;;;;5034549;28;8758;-66
2022/03/30 01:05:10;;;;;;;;;61.75;49.25;26.20;99.90;;;;;;5016677;28;8768;-66
2022/03/30 01:07:37;;;;;;;;;63.40;51.80;26.20;99.90;;;;;;5018005;28;8903;-65
2022/03/30 01:10:07;;;;;;;;;64.25;50.25;26.20;99.90;;;;;;5018951;28;9417;-66
2022/03/30 01:12:36;;;;;;;;;67.40;53.00;26.20;99.90;;;;;;5017672;28;8776;-66
2022/03/30 01:15:03;;;;;;;;;66.00;52.40;26.30;99.90;;;;;;5016550;28;8756;-66
2022/03/30 01:17:30;;;;;;;;;65.40;51.40;26.30;99.90;;;;;;5017099;28;8871;-66
2022/03/30 01:19:57;;;;;;;;;63.40;52.00;26.30;99.90;;;;;;5035708;28;8758;-66
2022/03/30 01:22:23;;;;;;;;;63.80;51.80;26.20;99.90;;;;;;5037274;28;8745;-65
2022/03/30 01:24:50;;;;;;;;;67.40;55.60;26.20;99.90;;;;;;5037294;28;8811;-66
2022/03/30 01:27:16;;;;;;;;;65.00;52.60;26.30;99.90;;;;;;5037286;28;8781;-66
2022/03/30 01:32:30;;;;;;;;;72.20;54.40;26.40;99.90;;;;;;5036396;28;8731;-65
2022/03/30 01:35:01;;;;;;;;;67.20;52.80;26.40;99.90;;;;;;5024609;28;8860;-65
2022/03/30 01:37:29;;;;;;;;;72.80;56.40;26.50;99.90;;;;;;5017436;28;8871;-65
2022/03/30 01:40:00;;;;;;;;;66.80;53.00;26.60;99.90;;;;;;5017761;28;8760;-66
2022/03/30 01:42:27;;;;;;;;;68.40;54.20;26.60;99.90;;;;;;5016672;28;8761;-66
2022/03/30 01:44:53;;;;;;;;;66.40;52.40;26.70;99.90;;;;;;5017112;28;8764;-66
2022/03/30 01:47:20;;;;;;;;;69.40;54.00;26.70;99.90;;;;;;5015202;28;8786;-66
2022/03/30 01:49:47;;;;;;;;;66.60;54.60;26.70;99.90;;;;;;5036254;28;8758;-66
2022/03/30 01:52:16;;;;;;;;;66.40;53.40;26.70;99.90;;;;;;5036062;28;8749;-66
2022/03/30 01:54:43;;;;;;;;;68.75;55.00;26.70;99.90;;;;;;5036384;28;8831;-66
2022/03/30 01:57:12;;;;;;;;;61.00;48.60;26.80;99.90;;;;;;5036703;28;8754;-66
2022/03/30 01:59:40;;;;;;;;;59.40;47.40;26.90;99.90;;;;;;5035247;28;8836;-66
2022/03/30 02:02:08;;;;;;;;;63.60;52.00;26.90;99.90;;;;;;5036527;28;8738;-67
2022/03/30 02:04:37;;;;;;;;;69.60;55.00;26.90;99.90;;;;;;5018367;28;8767;-66
2022/03/30 02:07:05;;;;;;;;;69.60;56.80;26.90;99.90;;;;;;5016519;28;8729;-66
2022/03/30 02:09:32;;;;;;;;;70.20;54.20;26.90;99.90;;;;;;5015669;28;8819;-66
2022/03/30 02:11:59;;;;;;;;;71.40;59.00;27.00;99.90;;;;;;4999530;28;8776;-67
2022/03/30 02:14:26;;;;;;;;;73.80;66.00;27.10;99.90;;;;;;5016190;28;9425;-66
2022/03/30 02:16:53;;;;;;;;;73.40;61.40;27.10;99.90;;;;;;5016552;28;8867;-67
2022/03/30 02:19:19;;;;;;;;;72.00;59.20;27.20;99.90;;;;;;5032782;28;9398;-66
2022/03/30 02:21:46;;;;;;;;;72.80;63.60;27.20;99.90;;;;;;5036517;28;8937;-67
2022/03/30 02:24:13;;;;;;;;;73.40;65.40;27.30;99.90;;;;;;5036468;28;8734;-67
2022/03/30 02:26:39;;;;;;;;;75.40;66.80;27.30;99.90;;;;;;5037341;28;8830;-67
2022/03/30 02:29:06;;;;;;;;;72.40;63.20;27.40;99.90;;;;;;5038540;28;8781;-67
2022/03/30 02:31:34;;;;;;;;;74.80;66.60;27.40;99.90;;;;;;5038090;28;8722;-66
2022/03/30 02:34:00;;;;;;;;;73.20;62.00;27.40;99.90;;;;;;5025648;28;8764;-66
2022/03/30 02:36:27;;;;;;;;;76.20;64.40;27.50;99.90;;;;;;5019645;28;8745;-66
2022/03/30 02:38:53;;;;;;;;;68.20;58.80;27.60;99.90;;;;;;5019761;28;8759;-66
2022/03/30 02:41:20;;;;;;;;;74.80;63.20;27.70;99.90;;;;;;5018638;28;8756;-65
2022/03/30 02:43:55;;;;;;;;;72.00;59.20;27.70;99.90;;;;;;5019815;28;8764;-66
2022/03/30 02:46:22;;;;;;;;;71.40;60.40;27.60;99.90;;;;;;5018505;28;8725;-66
2022/03/30 02:48:48;;;;;;;;;69.00;59.80;27.80;99.90;;;;;;5029734;28;8819;-66
2022/03/30 02:51:15;;;;;;;;;73.00;61.00;27.90;99.90;;;;;;5039588;28;8776;-66
2022/03/30 02:53:42;;;;;;;;;70.00;57.00;28.00;99.90;;;;;;5039213;28;8753;-66
2022/03/30 02:56:08;;;;;;;;;72.60;63.40;27.90;99.90;;;;;;5039482;28;8765;-66
2022/03/30 02:58:35;;;;;;;;;69.60;58.40;27.90;99.90;;;;;;5039163;28;8777;-66
2022/03/30 03:01:02;;;;;;;;;75.00;62.40;28.00;99.90;;;;;;5039663;28;8853;-66
2022/03/30 03:03:28;;;;;;;;;72.40;63.60;28.10;99.90;;;;;;5028916;28;8736;-66
2022/03/30 03:05:55;;;;;;;;;67.40;57.40;28.00;99.90;;;;;;5019391;28;8764;-66
2022/03/30 03:08:21;;;;;;;;;62.40;51.60;28.10;99.90;;;;;;5019132;28;9098;-66
2022/03/30 03:10:48;;;;;;;;;64.80;53.60;28.10;99.90;;;;;;5019293;28;8748;-66
2022/03/30 03:13:16;;;;;;;;;74.40;64.00;28.20;99.90;;;;;;5019763;28;8752;-66
2022/03/30 03:15:43;;;;;;;;;70.40;59.40;28.20;99.90;;;;;;5050925;28;8784;-66
2022/03/30 03:18:10;;;;;;;;;66.40;53.00;28.20;99.90;;;;;;5025321;28;9103;-66
2022/03/30 03:20:36;;;;;;;;;70.20;60.60;28.20;99.90;;;;;;5038648;28;8866;-66
2022/03/30 03:23:03;;;;;;;;;63.40;51.40;28.30;99.90;;;;;;5037770;28;8762;-66
2022/03/30 03:25:33;;;;;;;;;68.60;57.40;28.30;99.90;;;;;;5037774;28;8788;-66
2022/03/30 03:28:00;;;;;;;;;72.60;61.40;28.30;99.90;;;;;;5039326;28;8810;-65
2022/03/30 03:30:28;;;;;;;;;69.40;57.40;28.30;99.90;;;;;;5020770;28;8757;-66
2022/03/30 03:32:54;;;;;;;;;67.80;55.60;28.40;99.90;;;;;;5034228;28;9183;-63
2022/03/30 03:35:21;;;;;;;;;69.60;55.40;28.40;99.90;;;;;;5018944;28;8875;-65
2022/03/30 03:37:48;;;;;;;;;64.80;50.40;28.50;99.90;;;;;;5018137;28;8791;-66
2022/03/30 03:40:17;;;;;;;;;67.60;54.00;28.50;99.90;;;;;;5019266;28;8780;-66
2022/03/30 03:42:43;;;;;;;;;66.60;53.60;28.50;99.90;;;;;;5018538;28;8771;-66
2022/03/30 03:45:10;;;;;;;;;63.20;51.00;28.50;99.90;;;;;;5018905;28;8836;-66
2022/03/30 03:47:37;;;;;;;;;71.00;54.00;28.60;99.90;;;;;;5020008;28;8772;-66
2022/03/30 03:50:04;;;;;;;;;64.25;51.25;28.70;99.90;;;;;;5036994;28;8774;-66
2022/03/30 03:52:31;;;;;;;;;60.60;47.60;28.80;99.90;;;;;;5037605;28;8956;-66
2022/03/30 03:54:58;;;;;;;;;65.20;53.00;28.70;99.90;;;;;;5038771;28;8769;-66
2022/03/30 03:57:24;;;;;;;;;68.60;56.80;28.70;99.90;;;;;;5036442;28;8750;-66
2022/03/30 03:59:51;;;;;;;;;64.60;52.20;28.70;99.90;;;;;;5037008;28;9573;-66
2022/03/30 04:02:18;;;;;;;;;65.00;52.00;28.80;99.90;;;;;;5038548;28;8852;-65
2022/03/30 04:04:44;;;;;;;;;67.60;53.00;29.00;99.90;;;;;;5019664;28;8787;-66
2022/03/30 04:07:11;;;;;;;;;66.60;53.20;28.80;99.90;;;;;;5019350;28;8724;-66
2022/03/30 04:09:38;;;;;;;;;69.20;57.20;28.80;99.90;;;;;;5018183;28;8822;-66
2022/03/30 04:12:05;;;;;;;;;66.60;54.40;29.00;99.90;;;;;;5018352;28;8752;-66
2022/03/30 04:14:32;;;;;;;;;67.00;53.80;29.20;99.90;;;;;;5018022;28;8776;-66
2022/03/30 04:16:58;;;;;;;;;66.40;52.80;29.30;99.90;;;;;;5018193;28;8866;-66
2022/03/30 04:19:28;;;;;;;;;66.40;52.40;29.20;99.90;;;;;;5034061;28;8764;-65
2022/03/30 04:21:54;;;;;;;;;60.00;47.40;29.40;99.90;;;;;;5038145;28;8773;-67
2022/03/30 04:24:21;;;;;;;;;66.40;52.40;29.40;99.90;;;;;;5037647;28;8742;-65
2022/03/30 04:26:47;;;;;;;;;66.40;53.40;29.30;99.90;;;;;;5037748;28;8792;-66
2022/03/30 04:29:14;;;;;;;;;71.20;55.60;29.10;99.90;;;;;;5036367;28;8831;-67
2022/03/30 04:31:41;;;;;;;;;65.20;52.00;29.10;99.90;;;;;;5037289;28;8706;-66
2022/03/30 04:34:07;;;;;;;;;69.00;55.20;29.40;99.90;;;;;;5023763;28;8842;-67
2022/03/30 04:36:36;;;;;;;;;68.00;53.40;29.40;99.90;;;;;;5017652;28;8783;-67
2022/03/30 04:39:03;;;;;;;;;68.20;55.20;29.40;99.90;;;;;;5017619;28;8729;-66
2022/03/30 04:41:30;;;;;;;;;62.00;50.80;29.50;99.90;;;;;;5017601;28;8729;-66
2022/03/30 04:43:57;;;;;;;;;64.20;52.40;29.40;99.90;;;;;;5016598;28;9435;-66
2022/03/30 04:46:23;;;;;;;;;69.20;54.60;29.50;99.90;;;;;;5018110;28;8721;-66
2022/03/30 04:48:50;;;;;;;;;64.60;51.80;29.80;99.90;;;;;;5029276;28;8865;-66
2022/03/30 04:51:17;;;;;;;;;69.80;55.60;29.90;99.90;;;;;;5037122;28;8769;-66
2022/03/30 04:53:44;;;;;;;;;68.60;53.20;29.80;99.90;;;;;;5037098;28;8749;-66
2022/03/30 04:56:10;;;;;;;;;61.60;50.40;29.90;99.90;;;;;;5037467;28;8730;-66
2022/03/30 04:58:37;;;;;;;;;65.20;51.60;29.80;99.90;;;;;;5037031;28;8753;-66
2022/03/30 05:01:03;;;;;;;;;58.40;47.60;29.80;99.90;;;;;;5036191;28;9506;-66
2022/03/30 05:03:30;;;;;;;;;65.20;51.60;29.90;99.90;;;;;;5027835;28;8724;-66
2022/03/30 05:05:58;;;;;;;;;62.40;51.00;29.90;99.90;;;;;;5017366;28;8759;-66
2022/03/30 05:08:24;;;;;;;;;57.60;47.80;29.90;99.90;;;;;;5016174;28;8708;-66
2022/03/30 05:10:51;;;;;;;;;62.80;50.20;30.00;99.90;;;;;;5018046;28;8838;-66
2022/03/30 05:13:18;;;;;;;;;59.20;48.00;30.00;99.90;;;;;;5016475;28;8809;-62
2022/03/30 05:15:44;;;;;;;;;62.00;48.60;30.10;99.90;;;;;;5017996;28;8779;-66
2022/03/30 05:18:11;;;;;;;;;62.20;50.60;30.20;99.90;;;;;;5023597;28;9167;-66
2022/03/30 05:20:41;;;;;;;;;58.60;48.60;30.20;99.90;;;;;;5037011;28;9552;-66
2022/03/30 05:23:08;;;;;;;;;62.50;50.00;30.30;99.90;;;;;;5036000;28;8773;-66
2022/03/30 05:25:34;;;;;;;;;59.75;48.75;30.30;99.90;;;;;;5037180;28;8893;-66
2022/03/30 05:28:01;;;;;;;;;57.40;47.40;30.20;99.90;;;;;;5038079;28;8821;-66
2022/03/30 05:30:28;;;;;;;;;62.00;50.00;30.20;99.90;;;;;;5037381;28;8769;-66
2022/03/30 05:32:54;;;;;;;;;63.00;51.60;30.30;99.90;;;;;;5033093;28;9815;-66
2022/03/30 05:35:21;;;;;;;;;58.00;47.00;30.40;99.80;;;;;;5017064;28;8773;-66
2022/03/30 05:37:48;;;;;;;;;63.20;51.40;30.40;99.30;;;;;;5015920;28;8760;-66
2022/03/30 05:40:16;;;;;;;;;64.20;50.00;30.40;99.50;;;;;;5017841;28;8887;-67
2022/03/30 05:42:44;;;;;;;;;59.00;49.20;30.30;99.90;;;;;;5017556;28;8745;-66
2022/03/30 05:45:11;;;;;;;;;63.75;52.25;30.50;99.00;;;;;;5016280;28;8756;-66
2022/03/30 05:47:38;;;;;;;;;64.40;50.80;30.50;98.60;;;;;;5018510;28;8792;-66
2022/03/30 05:50:07;;;;;;;;;61.00;49.00;30.50;98.90;;;;;;5036543;28;8767;-66
2022/03/30 05:52:34;;;;;;;;;63.20;51.60;30.60;99.10;;;;;;5035645;28;8746;-66
2022/03/30 05:55:01;;;;;;;;;61.00;47.00;30.60;99.90;;;;;;5037547;28;8742;-66
2022/03/30 05:57:27;;;;;;;;;62.60;51.00;30.70;98.50;;;;;;5035072;28;8761;-67
2022/03/30 05:59:54;;;;;;;;;60.20;49.00;30.90;97.50;;;;;;5036709;28;8765;-66
2022/03/30 06:02:21;;;;;;;;;58.40;47.60;30.90;97.50;;;;;;5038523;28;8792;-66
2022/03/30 06:04:50;;;;;;;;;62.40;48.80;31.00;97.80;;;;;;5020901;28;8760;-66
2022/03/30 06:07:17;;;;;;;;;57.00;46.00;30.90;98.30;;;;;;5020864;28;8748;-65
2022/03/30 06:09:44;;;;;;;;;59.75;47.25;30.90;98.30;;;;;;5020459;28;8752;-66
2022/03/30 06:12:11;;;;;;;;;52.00;43.20;31.00;97.60;;;;;;5020420;28;8725;-66
2022/03/30 06:14:37;;;;;;;;;62.20;49.60;30.90;97.50;;;;;;5020240;28;8788;-67
2022/03/30 06:17:05;;;;;;;;;60.40;49.20;31.00;96.60;;;;;;5018882;28;8749;-66
2022/03/30 06:19:33;;;;;;;;;61.20;50.00;31.00;96.30;;;;;;5037221;28;9374;-66
2022/03/30 06:22:01;;;;;;;;;56.80;46.00;31.00;95.50;;;;;;5055968;28;8730;-66
2022/03/30 06:24:28;;;;;;;;;56.00;45.80;31.10;94.60;;;;;;5038605;28;8738;-66
2022/03/30 06:26:55;;;;;;;;;50.40;43.00;31.20;94.50;;;;;;5038906;28;8766;-66
2022/03/30 06:29:21;;;;;;;;;63.20;50.60;31.20;94.90;;;;;;5039432;28;8770;-66
2022/03/30 06:31:48;;;;;;;;;59.60;47.40;31.20;93.00;;;;;;5039959;28;8741;-66
2022/03/30 06:34:15;;;;;;;;;56.00;46.40;31.30;94.10;;;;;;5025164;28;8919;-66
2022/03/30 06:36:41;;;;;;;;;54.80;45.80;31.10;94.50;;;;;;5018465;28;8732;-66
2022/03/30 06:39:09;;;;;;;;;58.40;47.00;31.20;94.30;;;;;;5019800;28;8728;-66
2022/03/30 06:41:36;;;;;;;;;61.60;49.40;31.20;93.30;;;;;;5028842;28;8760;-66
2022/03/30 06:44:03;;;;;;;;;59.40;49.00;31.30;93.70;;;;;;5025319;28;8757;-66
2022/03/30 06:46:29;;;;;;;;;57.00;46.20;31.30;94.10;;;;;;5018337;28;8725;-66
2022/03/30 06:48:56;;;;;;;;;59.60;47.80;31.30;94.20;;;;;;5032497;28;8754;-66
2022/03/30 06:51:23;;;;;;;;;59.00;47.00;31.20;92.60;;;;;;5039321;28;8765;-66
2022/03/30 06:53:49;;;;;;;;;55.20;45.20;31.20;93.20;;;;;;5039386;28;8787;-66
2022/03/30 06:56:16;;;;;;;;;54.40;45.20;31.30;91.60;;;;;;5039648;28;8818;-66
2022/03/30 06:58:43;;;;;;;;;59.00;47.80;31.40;91.80;;;;;;5039582;28;8730;-66
2022/03/30 07:01:12;;;;;;;;;61.20;48.80;31.40;92.90;;;;;;5040012;28;8756;-67
2022/03/30 07:03:39;;;;;;;;;60.40;49.20;31.60;92.30;;;;;;5028731;28;8752;-66
2022/03/30 07:06:06;;;;;;;;;59.80;48.80;31.60;92.40;;;;;;5019638;28;8818;-66
2022/03/30 07:11:17;;;;;;;;;55.75;46.00;31.50;93.60;;;;;;5019041;28;8752;-64
2022/03/30 07:13:45;;;;;;;;;56.60;46.80;31.80;91.50;;;;;;5018654;28;8732;-66
2022/03/30 07:16:11;;;;;;;;;55.60;45.20;31.70;90.10;;;;;;5019988;28;8717;-67
2022/03/30 07:18:38;;;;;;;;;53.40;44.20;31.90;89.20;;;;;;5027039;28;8742;-66
2022/03/30 07:21:05;;;;;;;;;56.00;46.00;31.90;90.30;;;;;;5039131;28;8840;-66
2022/03/30 07:23:31;;;;;;;;;53.00;45.00;31.90;89.00;;;;;;5038945;28;8758;-66
2022/03/30 07:26:01;;;;;;;;;52.20;44.40;32.00;85.20;;;;;;5038871;28;8789;-66
2022/03/30 07:28:31;;;;;;;;;55.40;44.40;32.00;86.10;;;;;;5038511;28;8810;-66
2022/03/30 07:30:58;;;;;;;;;54.40;45.00;32.10;84.50;;;;;;5039183;28;8766;-66
2022/03/30 07:33:24;;;;;;;;;57.40;47.40;32.10;83.00;;;;;;5029901;28;8839;-65
2022/03/30 07:35:51;;;;;;;;;59.25;46.25;31.90;82.80;;;;;;5018745;28;8761;-66
2022/03/30 07:38:19;;;;;;;;;53.25;44.00;32.10;82.00;;;;;;5018693;28;8781;-66
2022/03/30 07:40:46;;;;;;;;;55.00;44.75;32.20;83.70;;;;;;5017966;28;8782;-65
2022/03/30 07:43:14;;;;;;;;;60.00;47.00;32.20;85.20;;;;;;5020337;28;8827;-66
2022/03/30 07:45:41;;;;;;;;;54.75;45.25;32.10;82.70;;;;;;5018902;28;8783;-66
2022/03/30 07:48:12;;;;;;;;;55.25;44.50;32.20;84.20;;;;;;5024233;28;8782;-66
2022/03/30 07:50:39;;;;;;;;;58.60;47.60;32.40;83.70;;;;;;5038279;28;8868;-66
2022/03/30 07:53:08;;;;;;;;;51.40;42.40;32.40;84.10;;;;;;5038349;28;8786;-66
2022/03/30 07:55:35;;;;;;;;;54.00;43.20;32.40;82.90;;;;;;5037959;28;8750;-66
2022/03/30 07:58:02;;;;;;;;;46.50;38.75;32.20;82.60;;;;;;5038907;28;8766;-67
2022/03/30 08:00:29;;;;;;;;;52.40;42.00;32.10;81.80;;;;;;5037881;28;8876;-66
2022/03/30 08:02:56;;;;;;;;;52.60;43.60;32.00;80.40;;;;;;5032954;28;8805;-66
2022/03/30 08:05:22;;;;;;;;;61.00;47.40;32.00;82.20;;;;;;5016700;28;9455;-66
2022/03/30 08:07:49;;;;;;;;;55.60;46.00;32.00;82.30;;;;;;5016708;28;8768;-66
2022/03/30 08:10:17;;;;;;;;;53.60;44.20;32.10;79.10;;;;;;5018689;28;8760;-67
2022/03/30 08:12:44;;;;;;;;;55.00;44.00;32.10;77.90;;;;;;5016787;28;8855;-66
2022/03/30 08:15:14;;;;;;;;;55.00;44.80;32.20;77.40;;;;;;5036689;28;8803;-66
2022/03/30 08:17:42;;;;;;;;;55.80;46.00;32.40;80.30;;;;;;5019880;28;8768;-66
2022/03/30 08:20:11;;;;;;;;;58.80;47.20;32.10;79.30;;;;;;5038110;28;8855;-66
2022/03/30 08:22:38;;;;;;;;;62.00;49.60;32.30;80.10;;;;;;5037433;28;8868;-66
2022/03/30 08:25:10;;;;;;;;;57.00;45.60;32.20;78.30;;;;;;5037579;28;8844;-67
2022/03/30 08:27:37;;;;;;;;;54.80;43.40;32.60;77.10;;;;;;5037449;28;8797;-67
2022/03/30 08:30:05;;;;;;;;;57.40;47.00;32.50;79.80;;;;;;5037823;28;8758;-66
2022/03/30 08:32:32;;;;;;;;;58.20;46.60;32.50;80.00;;;;;;5036652;28;9039;-67
2022/03/30 08:34:59;;;;;;;;;54.20;44.60;32.40;77.90;;;;;;5017652;28;9491;-66
2022/03/30 08:37:26;;;;;;;;;58.40;46.20;32.30;78.40;;;;;;5016309;28;8725;-66
2022/03/30 08:39:55;;;;;;;;;51.40;42.60;32.20;79.40;;;;;;5018005;28;8745;-66
2022/03/30 08:42:22;;;;;;;;;54.80;44.40;32.10;78.90;;;;;;5009226;28;8895;-66
2022/03/30 08:44:51;;;;;;;;;57.80;45.40;32.20;77.80;;;;;;5017754;28;8978;-66
2022/03/30 08:47:18;;;;;;;;;55.50;46.25;32.30;78.60;;;;;;5016208;28;8795;-66
2022/03/30 08:49:47;;;;;;;;;61.00;49.40;32.30;78.70;;;;;;5036227;28;8816;-66
2022/03/30 08:52:14;;;;;;;;;60.40;47.60;32.30;78.10;;;;;;5037978;28;8745;-66
2022/03/30 08:54:45;;;;;;;;;57.00;46.40;32.20;78.50;;;;;;5035724;28;8750;-66
2022/03/30 08:57:12;;;;;;;;;55.20;45.40;32.10;77.40;;;;;;5037421;28;8741;-66
2022/03/30 08:59:38;;;;;;;;;59.60;48.20;32.10;78.80;;;;;;5036983;28;8945;-66
2022/03/30 09:02:07;;;;;;;;;56.80;46.40;32.20;79.90;;;;;;5036949;28;8889;-66
2022/03/30 09:04:33;;;;;;;;;3.20;0.00;32.40;80.30;;;;;;5019408;28;8745;-66
2022/03/30 09:07:00;;;;;;;;;56.00;45.60;32.10;82.40;;;;;;5017898;28;8815;-66
2022/03/30 09:09:34;;;;;;;;;52.25;44.25;32.00;80.00;;;;;;5016839;28;8736;-67
2022/03/30 09:12:01;;;;;;;;;55.60;45.80;32.10;80.00;;;;;;5017265;28;8745;-67
2022/03/30 09:14:30;;;;;;;;;56.20;46.00;32.00;78.80;;;;;;5017723;28;8784;-66
2022/03/30 09:17:01;;;;;;;;;58.80;49.20;32.00;80.00;;;;;;5031530;28;8779;-66
2022/03/30 09:19:28;;;;;;;;;55.20;46.00;32.00;80.20;;;;;;5031926;28;8738;-66
2022/03/30 09:21:57;;;;;;;;;55.00;44.60;32.10;80.90;;;;;;5037550;28;8774;-66
2022/03/30 09:24:26;;;;;;;;;60.80;48.00;32.10;81.60;;;;;;5035145;28;8762;-66
2022/03/30 09:26:53;;;;;;;;;59.00;48.40;32.20;81.90;;;;;;5036847;28;8738;-66
2022/03/30 09:29:21;;;;;;;;;60.20;48.20;32.30;82.10;;;;;;5035144;28;8778;-66
2022/03/30 09:31:49;;;;;;;;;57.40;45.80;32.30;85.00;;;;;;5035538;28;8780;-66
2022/03/30 09:34:15;;;;;;;;;60.60;49.20;32.30;85.00;;;;;;5021128;28;8891;-66
2022/03/30 09:36:42;;;;;;;;;58.50;47.50;32.20;86.50;;;;;;5021608;28;8725;-66
2022/03/30 09:39:36;;;;;;;;;57.40;46.40;32.20;85.00;;;;;;5023202;28;8732;-66
2022/03/30 09:42:04;;;;;;;;;58.20;47.60;32.20;86.60;;;;;;5019737;28;9488;-66
2022/03/30 09:44:31;;;;;;;;;55.40;44.80;32.30;86.20;;;;;;5023197;28;9491;-66
2022/03/30 09:47:05;;;;;;;;;55.20;45.60;32.20;86.60;;;;;;5023520;28;8807;-67
2022/03/30 09:49:42;;;;;;;;;61.20;49.00;32.10;86.50;;;;;;5040077;28;8722;-66
2022/03/30 09:52:17;;;;;;;;;57.00;47.00;32.20;87.10;;;;;;5043591;28;9374;-66
2022/03/30 09:54:49;;;;;;;;;57.40;46.00;32.20;87.10;;;;;;5042992;28;8761;-67
2022/03/30 09:57:23;;;;;;;;;55.40;45.40;32.10;87.80;;;;;;5041790;28;8760;-66
2022/03/30 10:00:12;;;;;;;;;57.20;46.20;32.20;89.40;;;;;;5043341;28;8780;-66
2022/03/30 10:02:43;;;;;;;;;59.40;48.60;32.10;88.10;;;;;;5041168;28;8773;-66
2022/03/30 10:05:12;;;;;;;;;54.00;44.20;32.20;87.60;;;;;;5023141;28;8806;-67
2022/03/30 10:07:39;;;;;;;;;55.00;45.20;32.10;86.60;;;;;;5023082;28;8756;-66
2022/03/30 10:10:13;;;;;;;;;55.40;46.40;32.10;86.90;;;;;;5023724;28;8748;-66
2022/03/30 10:12:40;;;;;;;;;54.80;45.60;32.10;87.40;;;;;;5022923;28;8745;-66
2022/03/30 10:15:08;;;;;;;;;60.80;48.40;32.10;87.00;;;;;;5023444;28;9407;-66
2022/03/30 10:17:35;;;;;;;;;58.20;46.40;32.10;86.60;;;;;;5023740;28;8753;-66
2022/03/30 10:20:02;;;;;;;;;55.80;45.80;32.10;87.00;;;;;;5043067;28;8757;-66
2022/03/30 10:22:51;;;;;;;;;58.00;47.80;32.00;88.30;;;;;;5025098;28;9398;-66
2022/03/30 10:25:39;;;;;;;;;51.50;44.00;31.90;87.70;;;;;;5041770;28;8832;-65
2022/03/30 10:28:25;;;;;;;;;56.00;46.60;32.00;87.10;;;;;;5043395;28;8762;-66
2022/03/30 10:30:53;;;;;;;;;56.75;47.75;31.80;87.30;;;;;;5043069;28;8742;-67
2022/03/30 10:33:44;;;;;;;;;57.75;48.00;31.80;88.60;;;;;;5034961;28;8796;-66
2022/03/30 10:36:29;;;;;;;;;51.80;43.40;31.90;88.30;;;;;;5022858;28;9483;-66
2022/03/30 10:39:14;;;;;;;;;54.20;43.80;31.80;88.80;;;;;;5023073;28;8911;-66
2022/03/30 10:42:08;;;;;;;;;57.80;47.00;31.90;88.90;;;;;;5023083;28;9511;-67
2022/03/30 10:44:47;;;;;;;;;61.20;49.00;31.80;89.70;;;;;;5021791;28;8776;-66
2022/03/30 10:47:23;;;;;;;;;55.60;46.60;31.80;90.10;;;;;;5019574;28;8765;-66
2022/03/30 10:49:57;;;;;;;;;58.00;45.80;31.70;90.00;;;;;;5039505;28;9427;-66
2022/03/30 10:52:30;;;;;;;;;62.40;49.20;31.70;90.10;;;;;;5071848;28;8757;-66
2022/03/30 10:55:16;;;;;;;;;58.00;46.80;31.70;90.20;;;;;;5071773;28;8806;-66
2022/03/30 10:57:49;;;;;;;;;60.60;49.40;31.70;90.50;;;;;;5039501;28;8800;-66
2022/03/30 11:00:17;;;;;;;;;61.80;48.00;31.60;90.90;;;;;;5039420;28;8773;-66
2022/03/30 11:02:44;;;;;;;;;56.60;47.20;31.60;91.20;;;;;;5069171;28;8750;-66
2022/03/30 11:05:14;;;;;;;;;53.80;44.60;31.60;91.10;;;;;;5019260;28;9518;-66
2022/03/30 11:07:41;;;;;;;;;60.25;47.00;31.50;91.40;;;;;;5019166;28;8744;-66
2022/03/30 11:10:25;;;;;;;;;60.60;49.00;31.50;91.10;;;;;;5019849;28;8741;-66
2022/03/30 11:13:01;;;;;;;;;62.20;50.80;31.50;90.90;;;;;;5018421;28;8760;-66
2022/03/30 11:15:28;;;;;;;;;57.60;46.80;31.40;90.90;;;;;;5019478;28;8781;-66
2022/03/30 11:18:00;;;;;;;;;59.80;48.20;31.40;91.10;;;;;;5021816;28;8774;-67
2022/03/30 11:20:26;;;;;;;;;60.80;49.40;31.40;91.30;;;;;;5037465;28;8773;-66
2022/03/30 11:22:53;;;;;;;;;58.20;46.80;31.40;91.40;;;;;;5038762;28;8758;-66
2022/03/30 11:25:22;;;;;;;;;50.40;42.20;31.30;91.50;;;;;;5037908;28;8889;-66
2022/03/30 11:27:58;;;;;;;;;59.60;45.60;31.30;91.70;;;;;;5038912;28;8824;-67
2022/03/30 11:30:31;;;;;;;;;57.20;46.20;31.30;92.30;;;;;;5038755;28;8780;-66
2022/03/30 11:33:01;;;;;;;;;58.00;46.60;31.30;92.80;;;;;;5034627;28;8939;-67
2022/03/30 11:35:30;;;;;;;;;57.40;47.40;31.20;92.70;;;;;;5018667;28;9080;-67
2022/03/30 11:38:05;;;;;;;;;59.25;48.00;31.10;92.80;;;;;;5050448;28;8792;-65
2022/03/30 11:40:39;;;;;;;;;55.60;45.80;31.10;93.20;;;;;;5018440;28;8760;-66
2022/03/30 11:43:06;;;;;;;;;59.00;48.00;31.00;93.30;;;;;;5019794;28;8772;-67
2022/03/30 11:45:33;;;;;;;;;59.75;47.75;31.00;93.40;;;;;;5018578;28;8760;-66
2022/03/30 11:48:13;;;;;;;;;56.20;45.80;30.90;93.50;;;;;;5022730;28;8747;-67
2022/03/30 11:50:40;;;;;;;;;64.20;50.80;31.00;93.70;;;;;;5038559;28;8766;-66
2022/03/30 11:53:15;;;;;;;;;58.60;47.80;30.90;93.90;;;;;;5038121;28;8797;-66
2022/03/30 11:55:55;;;;;;;;;59.60;48.80;30.90;93.90;;;;;;5038571;28;8742;-66
2022/03/30 11:58:34;;;;;;;;;60.60;49.20;30.90;94.10;;;;;;5038484;28;8860;-66
2022/03/30 12:01:03;;;;;;;;;61.60;49.80;30.90;93.80;;;;;;5038167;28;8782;-66
2022/03/30 12:03:30;;;;;;;;;59.60;48.00;30.80;93.90;;;;;;5029488;28;8760;-66
2022/03/30 12:05:57;;;;;;;;;63.25;51.25;30.80;94.10;;;;;;5018603;28;8776;-66
2022/03/30 12:08:25;;;;;;;;;63.20;49.60;30.70;94.20;;;;;;5018159;28;8859;-66
2022/03/30 12:10:57;;;;;;;;;62.00;49.75;30.70;94.20;;;;;;5016949;28;8827;-66
2022/03/30 12:13:24;;;;;;;;;64.80;51.20;30.70;94.40;;;;;;5018245;28;8882;-65
2022/03/30 12:16:13;;;;;;;;;59.80;49.20;30.70;94.70;;;;;;5017086;28;8771;-66
2022/03/30 12:18:50;;;;;;;;;58.40;47.40;30.70;94.80;;;;;;5026685;28;8750;-66
2022/03/30 12:21:24;;;;;;;;;62.60;50.60;30.70;95.00;;;;;;5038164;28;8770;-66
2022/03/30 12:24:04;;;;;;;;;65.60;50.40;30.70;94.70;;;;;;5037918;28;8777;-66
2022/03/30 12:26:34;;;;;;;;;61.40;50.60;30.70;94.80;;;;;;5069691;28;8839;-66
2022/03/30 12:29:14;;;;;;;;;64.20;51.60;30.70;94.90;;;;;;5037369;28;8836;-66
2022/03/30 12:32:02;;;;;;;;;64.20;52.20;30.60;95.00;;;;;;5036297;28;8730;-66
2022/03/30 12:34:34;;;;;;;;;60.80;49.60;30.60;95.20;;;;;;5020879;28;8785;-66
2022/03/30 12:37:02;;;;;;;;;64.20;52.40;30.50;95.50;;;;;;5018257;28;8757;-66
2022/03/30 12:39:32;;;;;;;;;64.80;51.20;30.40;95.80;;;;;;5017183;28;8788;-66
2022/03/30 12:42:06;;;;;;;;;58.20;48.80;30.40;95.40;;;;;;5017961;28;8795;-66
2022/03/30 12:44:46;;;;;;;;;62.80;51.20;30.40;95.70;;;;;;5017665;28;8783;-66
2022/03/30 12:47:17;;;;;;;;;64.20;52.20;30.40;95.80;;;;;;5018022;28;8783;-66
2022/03/30 12:49:44;;;;;;;;;65.60;52.40;30.40;95.90;;;;;;5035787;28;8785;-66